createdAt,value
2023-02-11T00:00:28.514Z,89.42
2023-02-11T00:01:28.656Z,89.42
2023-02-11T00:02:28.504Z,89.42
2023-02-11T00:03:28.538Z,89.32
2023-02-11T00:04:28.464Z,89.32
2023-02-11T00:05:28.492Z,89.42
2023-02-11T00:06:28.452Z,89.42
2023-02-11T00:07:28.461Z,89.42
2023-02-11T00:08:28.425Z,89.42
2023-02-11T00:09:30.361Z,89.42
2023-02-11T00:10:28.394Z,89.42
2023-02-11T00:11:28.471Z,89.32
2023-02-11T00:12:28.376Z,89.32
2023-02-11T00:13:28.442Z,89.32
2023-02-11T00:14:28.395Z,89.32
2023-02-11T00:15:28.352Z,89.42
2023-02-11T00:16:28.395Z,89.42
2023-02-11T00:17:28.374Z,89.42
2023-02-11T00:18:28.320Z,89.52
2023-02-11T00:19:28.310Z,89.52
2023-02-11T00:20:28.338Z,89.52
2023-02-11T00:21:28.394Z,89.52
2023-02-11T00:22:28.271Z,89.52
2023-02-11T00:23:28.270Z,89.62
2023-02-11T00:24:28.249Z,89.62
2023-02-11T00:25:28.244Z,89.52
2023-02-11T00:26:28.230Z,89.52
2023-02-11T00:27:28.281Z,89.52
2023-02-11T00:28:28.266Z,89.52
2023-02-11T00:29:28.189Z,89.52
2023-02-11T00:30:28.200Z,89.42
2023-02-11T00:31:28.365Z,89.42
2023-02-11T00:32:28.231Z,89.42
2023-02-11T00:33:28.193Z,89.52
2023-02-11T00:34:28.145Z,89.52
2023-02-11T00:35:28.125Z,89.52
2023-02-11T00:36:28.134Z,89.52
2023-02-11T00:37:28.103Z,89.42
2023-02-11T00:38:28.127Z,89.52
2023-02-11T00:39:28.140Z,89.42
2023-02-11T00:40:28.085Z,89.52
2023-02-11T00:41:28.111Z,89.42
2023-02-11T00:42:28.063Z,89.52
2023-02-11T00:43:28.060Z,89.52
2023-02-11T00:44:28.034Z,89.52
2023-02-11T00:45:28.012Z,89.52
2023-02-11T00:46:28.220Z,89.42
2023-02-11T00:47:28.022Z,89.42
2023-02-11T00:48:28.043Z,89.32
2023-02-11T00:49:27.981Z,89.22
2023-02-11T00:50:28.020Z,89.22
2023-02-11T00:51:27.993Z,89.22
2023-02-11T00:52:27.998Z,89.22
2023-02-11T00:53:27.931Z,89.22
2023-02-11T00:54:30.011Z,89.01
2023-02-11T00:55:27.923Z,88.90
2023-02-11T00:56:27.901Z,88.76
2023-02-11T00:57:27.899Z,88.76
2023-02-11T00:58:27.940Z,88.65
2023-02-11T00:59:27.889Z,88.65
2023-02-11T01:00:27.867Z,88.56
2023-02-11T01:01:28.050Z,88.45
2023-02-11T01:02:27.842Z,88.45
2023-02-11T01:03:27.828Z,88.45
2023-02-11T01:04:27.821Z,88.45
2023-02-11T01:05:27.870Z,88.45
2023-02-11T01:06:27.844Z,88.45
2023-02-11T01:07:27.804Z,88.45
2023-02-11T01:08:27.790Z,88.45
2023-02-11T01:09:27.812Z,88.45
2023-02-11T01:10:27.763Z,88.45
2023-02-11T01:11:27.752Z,88.45
2023-02-11T01:12:27.770Z,88.35
2023-02-11T01:13:27.730Z,88.35
2023-02-11T01:14:27.795Z,88.45
2023-02-11T01:15:27.837Z,88.35
2023-02-11T01:16:27.725Z,88.35
2023-02-11T01:17:27.684Z,88.35
2023-02-11T01:18:27.696Z,88.24
2023-02-11T01:19:27.663Z,88.24
2023-02-11T01:20:27.701Z,88.14
2023-02-11T01:21:27.655Z,88.04
2023-02-11T01:22:27.635Z,87.83
2023-02-11T01:23:27.623Z,87.73
2023-02-11T01:24:27.664Z,87.63
2023-02-11T01:25:27.602Z,87.63
2023-02-11T01:26:27.599Z,87.52
2023-02-11T01:27:27.574Z,87.52
2023-02-11T01:28:27.594Z,87.52
2023-02-11T01:29:27.556Z,87.63
2023-02-11T01:30:27.595Z,87.63
2023-02-11T01:31:27.670Z,87.63
2023-02-11T01:32:27.523Z,87.63
2023-02-11T01:33:27.518Z,87.63
2023-02-11T01:34:27.560Z,87.63
2023-02-11T01:35:27.488Z,87.63
2023-02-11T01:36:27.497Z,87.63
2023-02-11T01:37:27.474Z,87.63
2023-02-11T01:38:27.464Z,87.63
2023-02-11T01:39:27.492Z,87.63
2023-02-11T01:40:27.542Z,87.63
2023-02-11T01:41:27.432Z,87.52
2023-02-11T01:42:27.520Z,87.52
2023-02-11T01:43:27.423Z,87.52
2023-02-11T01:44:27.430Z,87.42
2023-02-11T01:45:27.441Z,87.42
2023-02-11T01:46:28.420Z,87.42
2023-02-11T01:47:27.360Z,87.42
2023-02-11T01:48:27.361Z,87.42
2023-02-11T01:49:27.455Z,87.52
2023-02-11T01:50:27.383Z,87.42
2023-02-11T01:51:27.362Z,87.42
2023-02-11T01:52:27.313Z,87.42
2023-02-11T01:53:27.300Z,87.52
2023-02-11T01:54:27.319Z,87.52
2023-02-11T01:55:27.300Z,87.52
2023-02-11T01:56:27.374Z,87.52
2023-02-11T01:57:27.319Z,87.52
2023-02-11T01:58:27.251Z,87.42
2023-02-11T01:59:27.238Z,87.42
2023-02-11T02:00:27.229Z,87.42
2023-02-11T02:01:27.333Z,87.32
2023-02-11T02:02:27.270Z,87.32
2023-02-11T02:03:27.240Z,87.32
2023-02-11T02:04:27.212Z,87.42
2023-02-11T02:05:27.170Z,87.42
2023-02-11T02:06:27.171Z,87.42
2023-02-11T02:07:27.211Z,87.52
2023-02-11T02:08:27.190Z,87.52
2023-02-11T02:09:27.137Z,87.52
2023-02-11T02:10:27.129Z,87.63
2023-02-11T02:11:27.099Z,87.63
2023-02-11T02:12:27.128Z,87.63
2023-02-11T02:13:27.087Z,87.73
2023-02-11T02:14:27.080Z,87.73
2023-02-11T02:15:27.072Z,87.83
2023-02-11T02:16:27.119Z,87.83
2023-02-11T02:17:27.121Z,87.83
2023-02-11T02:18:27.035Z,87.93
2023-02-11T02:19:27.057Z,87.93
2023-02-11T02:20:27.005Z,87.93
2023-02-11T02:21:26.997Z,88.04
2023-02-11T02:22:27.065Z,88.14
2023-02-11T02:23:26.975Z,88.14
2023-02-11T02:24:26.974Z,88.14
2023-02-11T02:25:26.995Z,88.24
2023-02-11T02:26:26.946Z,88.24
2023-02-11T02:27:26.932Z,88.24
2023-02-11T02:28:26.952Z,88.29
2023-02-11T02:29:26.952Z,88.39
2023-02-11T02:30:26.983Z,88.35
2023-02-11T02:31:26.933Z,88.39
2023-02-11T02:32:26.894Z,88.39
2023-02-11T02:33:26.870Z,88.39
2023-02-11T02:34:26.900Z,88.39
2023-02-11T02:35:26.875Z,88.39
2023-02-11T02:36:26.850Z,88.39
2023-02-11T02:37:26.829Z,88.49
2023-02-11T02:38:26.869Z,88.49
2023-02-11T02:39:26.804Z,88.49
2023-02-11T02:40:26.804Z,88.49
2023-02-11T02:41:26.819Z,88.59
2023-02-11T02:42:26.780Z,88.59
2023-02-11T02:43:26.760Z,88.59
2023-02-11T02:44:26.771Z,88.70
2023-02-11T02:45:26.768Z,88.70
2023-02-11T02:46:26.794Z,88.70
2023-02-11T02:47:26.714Z,88.70
2023-02-11T02:48:26.754Z,88.80
2023-02-11T02:49:26.694Z,88.80
2023-02-11T02:50:26.692Z,88.80
2023-02-11T02:51:26.673Z,88.80
2023-02-11T02:52:26.749Z,88.80
2023-02-11T02:53:26.659Z,88.80
2023-02-11T02:54:26.687Z,88.80
2023-02-11T02:55:26.634Z,88.80
2023-02-11T02:56:26.652Z,88.90
2023-02-11T02:57:26.604Z,88.90
2023-02-11T02:58:26.607Z,88.90
2023-02-11T02:59:26.643Z,88.90
2023-02-11T03:00:26.646Z,88.90
2023-02-11T03:01:26.574Z,88.90
2023-02-11T03:02:26.598Z,89.01
2023-02-11T03:03:26.570Z,89.01
2023-02-11T03:04:26.542Z,89.01
2023-02-11T03:05:26.532Z,89.01
2023-02-11T03:06:26.523Z,89.11
2023-02-11T03:07:26.547Z,89.11
2023-02-11T03:08:26.523Z,89.11
2023-02-11T03:09:26.581Z,89.11
2023-02-11T03:10:26.479Z,89.11
2023-02-11T03:11:26.462Z,89.11
2023-02-11T03:12:26.461Z,89.11
2023-02-11T03:13:26.443Z,89.22
2023-02-11T03:14:26.465Z,89.22
2023-02-11T03:15:26.424Z,89.22
2023-02-11T03:16:26.470Z,89.22
2023-02-11T03:17:26.399Z,89.22
2023-02-11T03:18:26.444Z,89.32
2023-02-11T03:19:26.372Z,89.32
2023-02-11T03:20:26.431Z,89.32
2023-02-11T03:21:26.354Z,89.32
2023-02-11T03:22:26.353Z,89.32
2023-02-11T03:23:26.342Z,89.42
2023-02-11T03:24:26.335Z,89.46
2023-02-11T03:25:26.372Z,89.56
2023-02-11T03:26:26.314Z,89.52
2023-02-11T03:27:26.294Z,89.56
2023-02-11T03:28:26.339Z,89.52
2023-02-11T03:29:26.314Z,89.67
2023-02-11T03:30:26.268Z,89.67
2023-02-11T03:31:26.381Z,89.67
2023-02-11T03:32:26.268Z,89.67
2023-02-11T03:33:26.231Z,89.67
2023-02-11T03:34:26.222Z,89.77
2023-02-11T03:35:26.241Z,89.77
2023-02-11T03:36:26.203Z,89.77
2023-02-11T03:37:26.190Z,89.87
2023-02-11T03:38:26.183Z,89.87
2023-02-11T03:39:26.161Z,89.87
2023-02-11T03:40:26.160Z,89.87
2023-02-11T03:41:26.179Z,89.98
2023-02-11T03:42:26.144Z,89.98
2023-02-11T03:43:26.131Z,89.98
2023-02-11T03:44:26.121Z,89.98
2023-02-11T03:45:26.221Z,89.98
2023-02-11T03:46:26.095Z,90.08
2023-02-11T03:47:26.080Z,90.08
2023-02-11T03:48:26.094Z,90.08
2023-02-11T03:49:26.059Z,90.19
2023-02-11T03:50:26.050Z,90.28
2023-02-11T03:51:26.141Z,90.28
2023-02-11T03:52:26.043Z,90.39
2023-02-11T03:53:26.020Z,90.49
2023-02-11T03:54:26.010Z,90.49
2023-02-11T03:55:26.029Z,90.49
2023-02-11T03:56:25.997Z,90.59
2023-02-11T03:57:26.026Z,90.70
2023-02-11T03:58:25.968Z,90.80
2023-02-11T03:59:25.956Z,90.91
2023-02-11T04:00:25.949Z,91.01
2023-02-11T04:01:26.043Z,91.11
2023-02-11T04:02:25.938Z,91.22
2023-02-11T04:03:25.950Z,91.32
2023-02-11T04:04:25.929Z,91.42
2023-02-11T04:05:25.890Z,91.52
2023-02-11T04:06:25.919Z,91.52
2023-02-11T04:07:25.868Z,91.63
2023-02-11T04:08:25.861Z,91.73
2023-02-11T04:09:25.846Z,91.73
2023-02-11T04:10:25.849Z,91.73
2023-02-11T04:11:25.817Z,91.83
2023-02-11T04:12:25.865Z,91.88
2023-02-11T04:13:25.808Z,91.98
2023-02-11T04:14:25.797Z,92.08
2023-02-11T04:15:25.788Z,92.08
2023-02-11T04:16:25.795Z,92.19
2023-02-11T04:17:25.808Z,92.29
2023-02-11T04:18:25.764Z,92.40
2023-02-11T04:19:25.737Z,92.50
2023-02-11T04:20:25.767Z,92.70
2023-02-11T04:21:25.715Z,92.80
2023-02-11T04:22:25.809Z,93.01
2023-02-11T04:23:25.729Z,93.22
2023-02-11T04:24:25.696Z,93.22
2023-02-11T04:25:25.677Z,93.43
2023-02-11T04:26:25.688Z,93.53
2023-02-11T04:27:25.656Z,93.63
2023-02-11T04:28:25.773Z,93.73
2023-02-11T04:29:25.636Z,93.84
2023-02-11T04:30:25.630Z,93.84
2023-02-11T04:31:25.812Z,93.94
2023-02-11T04:32:25.606Z,94.04
2023-02-11T04:33:25.637Z,94.15
2023-02-11T04:34:25.592Z,94.25
2023-02-11T04:35:25.575Z,94.35
2023-02-11T04:36:25.563Z,94.56
2023-02-11T04:37:25.556Z,94.67
2023-02-11T04:38:25.546Z,94.77
2023-02-11T04:39:25.604Z,95.02
2023-02-11T04:40:25.530Z,95.12
2023-02-11T04:41:25.508Z,95.22
2023-02-11T04:42:25.503Z,95.22
2023-02-11T04:43:25.554Z,95.22
2023-02-11T04:44:25.475Z,95.32
2023-02-11T04:45:25.476Z,95.43
2023-02-11T04:46:25.530Z,95.43
2023-02-11T04:47:25.455Z,95.43
2023-02-11T04:48:25.447Z,95.53
2023-02-11T04:49:25.455Z,95.53
2023-02-11T04:50:25.415Z,95.64
2023-02-11T04:51:25.415Z,95.64
2023-02-11T04:52:25.394Z,95.64
2023-02-11T04:53:25.397Z,95.74
2023-02-11T04:54:25.425Z,95.74
2023-02-11T04:55:25.359Z,95.84
2023-02-11T04:56:25.373Z,95.84
2023-02-11T04:57:25.346Z,95.84
2023-02-11T04:58:25.325Z,95.95
2023-02-11T04:59:25.335Z,96.05
2023-02-11T05:00:25.342Z,96.05
2023-02-11T05:01:25.411Z,96.15
2023-02-11T05:02:25.284Z,96.15
2023-02-11T05:03:25.274Z,96.15
2023-02-11T05:04:25.332Z,96.15
2023-02-11T05:05:25.263Z,96.15
2023-02-11T05:06:25.301Z,96.15
2023-02-11T05:07:25.284Z,96.15
2023-02-11T05:08:25.212Z,96.15
2023-02-11T05:09:25.211Z,96.15
2023-02-11T05:10:25.242Z,96.26
2023-02-11T05:11:25.199Z,96.26
2023-02-11T05:12:25.213Z,96.26
2023-02-11T05:13:25.182Z,96.26
2023-02-11T05:14:25.163Z,96.26
2023-02-11T05:15:25.161Z,96.26
2023-02-11T05:16:25.254Z,96.26
2023-02-11T05:17:25.185Z,96.26
2023-02-11T05:18:25.151Z,96.26
2023-02-11T05:19:25.122Z,96.26
2023-02-11T05:20:25.177Z,96.26
2023-02-11T05:21:25.121Z,96.36
2023-02-11T05:22:25.184Z,96.26
2023-02-11T05:23:25.081Z,96.26
2023-02-11T05:24:25.060Z,96.26
2023-02-11T05:25:25.071Z,96.26
2023-02-11T05:26:25.029Z,96.26
2023-02-11T05:27:25.061Z,96.26
2023-02-11T05:28:25.121Z,96.26
2023-02-11T05:29:25.012Z,96.26
2023-02-11T05:30:25.068Z,96.26
2023-02-11T05:31:24.982Z,96.15
2023-02-11T05:32:25.002Z,96.15
2023-02-11T05:33:25.020Z,96.15
2023-02-11T05:34:24.979Z,96.15
2023-02-11T05:35:24.943Z,96.15
2023-02-11T05:36:24.950Z,96.15
2023-02-11T05:37:25.030Z,96.15
2023-02-11T05:38:24.904Z,96.15
2023-02-11T05:39:24.902Z,96.15
2023-02-11T05:40:24.891Z,96.15
2023-02-11T05:41:25.026Z,96.15
2023-02-11T05:42:24.864Z,96.05
2023-02-11T05:43:24.880Z,96.05
2023-02-11T05:44:24.873Z,96.05
2023-02-11T05:45:24.849Z,96.15
2023-02-11T05:46:24.880Z,96.15
2023-02-11T05:47:24.827Z,96.15
2023-02-11T05:48:24.807Z,96.15
2023-02-11T05:49:24.840Z,96.15
2023-02-11T05:50:24.782Z,96.15
2023-02-11T05:51:24.817Z,96.15
2023-02-11T05:52:24.785Z,96.15
2023-02-11T05:53:24.772Z,96.15
2023-02-11T05:54:24.824Z,96.15
2023-02-11T05:55:24.733Z,96.15
2023-02-11T05:56:24.730Z,96.15
2023-02-11T05:57:27.848Z,96.15
2023-02-11T05:58:24.708Z,96.15
2023-02-11T05:59:24.690Z,96.05
2023-02-11T06:00:24.667Z,96.05
2023-02-11T06:01:24.678Z,96.05
2023-02-11T06:02:24.716Z,96.05
2023-02-11T06:03:24.720Z,96.05
2023-02-11T06:04:24.629Z,96.05
2023-02-11T06:05:24.616Z,96.05
2023-02-11T06:06:24.614Z,96.05
2023-02-11T06:07:24.628Z,96.15
2023-02-11T06:08:25.457Z,96.15
2023-02-11T06:09:24.596Z,96.15
2023-02-11T06:10:24.656Z,96.15
2023-02-11T06:11:24.572Z,96.15
2023-02-11T06:12:24.537Z,96.26
2023-02-11T06:13:24.607Z,96.26
2023-02-11T06:14:24.516Z,96.26
2023-02-11T06:15:24.520Z,96.26
2023-02-11T06:16:24.585Z,96.36
2023-02-11T06:17:24.493Z,96.36
2023-02-11T06:18:24.615Z,96.36
2023-02-11T06:19:24.480Z,96.36
2023-02-11T06:20:24.465Z,96.47
2023-02-11T06:21:33.536Z,96.47
2023-02-11T06:22:25.444Z,96.47
2023-02-11T06:23:24.464Z,96.47
2023-02-11T06:24:44.079Z,96.56
2023-02-11T06:25:25.445Z,96.56
2023-02-11T06:26:24.412Z,96.56
2023-02-11T06:27:24.378Z,96.56
2023-02-11T06:28:24.475Z,96.56
2023-02-11T06:29:24.411Z,96.67
2023-02-11T06:30:24.369Z,96.67
2023-02-11T06:31:24.483Z,96.67
2023-02-11T06:32:42.779Z,96.67
2023-02-11T06:33:25.338Z,96.77
2023-02-11T06:34:24.369Z,96.77
2023-02-11T06:35:24.342Z,96.77
2023-02-11T06:36:24.286Z,96.77
2023-02-11T06:37:24.295Z,96.77
2023-02-11T06:38:24.290Z,96.77
2023-02-11T06:39:24.264Z,96.77
2023-02-11T06:40:24.280Z,96.88
2023-02-11T06:41:24.253Z,96.88
2023-02-11T06:42:24.226Z,96.88
2023-02-11T06:43:24.221Z,96.88
2023-02-11T06:44:24.203Z,96.88
2023-02-11T06:45:24.236Z,96.88
2023-02-11T06:46:24.291Z,96.88
2023-02-11T06:47:24.179Z,96.88
2023-02-11T06:48:24.153Z,96.98
2023-02-11T06:49:24.154Z,96.98
2023-02-11T06:50:24.183Z,96.98
2023-02-11T06:51:24.124Z,96.98
2023-02-11T06:52:24.122Z,96.98
2023-02-11T06:53:24.186Z,96.98
2023-02-11T06:54:24.093Z,97.08
2023-02-11T06:55:24.106Z,97.08
2023-02-11T06:56:24.075Z,97.08
2023-02-11T06:57:24.087Z,97.08
2023-02-11T06:58:24.083Z,97.08
2023-02-11T06:59:24.077Z,97.08
2023-02-11T07:00:24.047Z,97.19
2023-02-11T07:01:24.081Z,97.19
2023-02-11T07:02:24.008Z,97.19
2023-02-11T07:03:25.701Z,97.19
2023-02-11T07:04:23.983Z,97.19
2023-02-11T07:05:23.999Z,97.19
2023-02-11T07:06:23.963Z,97.19
2023-02-11T07:07:23.963Z,97.29
2023-02-11T07:08:23.982Z,97.29
2023-02-11T07:09:23.944Z,97.19
2023-02-11T07:10:23.932Z,97.19
2023-02-11T07:11:23.944Z,97.19
2023-02-11T07:12:24.039Z,97.19
2023-02-11T07:13:23.922Z,97.19
2023-02-11T07:14:23.882Z,97.19
2023-02-11T07:15:23.872Z,97.19
2023-02-11T07:16:23.966Z,97.29
2023-02-11T07:17:23.851Z,97.29
2023-02-11T07:18:23.871Z,97.29
2023-02-11T07:19:23.832Z,97.29
2023-02-11T07:20:23.869Z,97.29
2023-02-11T07:21:23.871Z,97.29
2023-02-11T07:22:23.801Z,97.29
2023-02-11T07:23:23.791Z,97.29
2023-02-11T07:24:23.819Z,97.29
2023-02-11T07:25:23.771Z,97.29
2023-02-11T07:26:23.754Z,97.29
2023-02-11T07:27:23.769Z,97.29
2023-02-11T07:28:23.770Z,97.25
2023-02-11T07:29:23.731Z,97.29
2023-02-11T07:30:23.781Z,97.25
2023-02-11T07:31:23.843Z,97.25
2023-02-11T07:32:23.729Z,97.25
2023-02-11T07:33:23.693Z,97.25
2023-02-11T07:34:23.725Z,97.14
2023-02-11T07:35:23.671Z,97.14
2023-02-11T07:36:23.650Z,97.14
2023-02-11T07:37:23.655Z,97.14
2023-02-11T07:38:23.660Z,97.14
2023-02-11T07:39:23.620Z,97.14
2023-02-11T07:40:23.624Z,97.14
2023-02-11T07:41:23.684Z,97.14
2023-02-11T07:42:23.648Z,97.14
2023-02-11T07:43:23.578Z,97.14
2023-02-11T07:44:23.591Z,97.14
2023-02-11T07:45:23.558Z,97.14
2023-02-11T07:46:23.597Z,97.14
2023-02-11T07:47:23.575Z,97.14
2023-02-11T07:48:23.546Z,97.14
2023-02-11T07:49:23.608Z,97.14
2023-02-11T07:50:23.558Z,97.14
2023-02-11T07:51:23.521Z,97.14
2023-02-11T07:52:23.475Z,97.14
2023-02-11T07:53:23.504Z,97.14
2023-02-11T07:54:23.462Z,97.25
2023-02-11T07:55:23.488Z,97.25
2023-02-11T07:56:23.448Z,97.25
2023-02-11T07:57:23.434Z,97.14
2023-02-11T07:58:23.416Z,97.14
2023-02-11T07:59:23.413Z,97.14
2023-02-11T08:00:23.432Z,97.14
2023-02-11T08:01:23.431Z,97.14
2023-02-11T08:02:23.437Z,97.14
2023-02-11T08:03:23.378Z,97.14
2023-02-11T08:04:23.365Z,97.14
2023-02-11T08:05:23.354Z,97.04
2023-02-11T08:06:23.367Z,97.04
2023-02-11T08:07:23.355Z,97.04
2023-02-11T08:08:23.312Z,97.04
2023-02-11T08:09:23.376Z,97.04
2023-02-11T08:10:23.291Z,96.94
2023-02-11T08:11:23.313Z,96.94
2023-02-11T08:12:23.334Z,96.94
2023-02-11T08:13:23.252Z,96.94
2023-02-11T08:14:23.241Z,96.94
2023-02-11T08:15:23.272Z,96.94
2023-02-11T08:16:23.312Z,96.94
2023-02-11T08:17:23.226Z,96.83
2023-02-11T08:18:23.332Z,96.83
2023-02-11T08:19:23.198Z,96.83
2023-02-11T08:20:23.222Z,96.83
2023-02-11T08:21:23.181Z,96.73
2023-02-11T08:22:23.157Z,96.73
2023-02-11T08:23:23.149Z,96.83
2023-02-11T08:24:23.168Z,96.73
2023-02-11T08:25:23.162Z,96.73
2023-02-11T08:26:23.122Z,96.73
2023-02-11T08:27:23.099Z,96.73
2023-02-11T08:28:23.175Z,96.73
2023-02-11T08:29:23.081Z,96.69
2023-02-11T08:30:25.657Z,96.69
2023-02-11T08:31:23.170Z,96.69
2023-02-11T08:32:23.076Z,96.69
2023-02-11T08:33:23.058Z,96.69
2023-02-11T08:34:23.052Z,96.58
2023-02-11T08:35:23.029Z,96.58
2023-02-11T08:36:23.039Z,96.58
2023-02-11T08:37:23.019Z,96.58
2023-02-11T08:38:22.990Z,96.58
2023-02-11T08:39:23.034Z,96.58
2023-02-11T08:40:23.124Z,96.48
2023-02-11T08:41:22.960Z,96.37
2023-02-11T08:42:23.274Z,96.37
2023-02-11T08:43:23.076Z,96.27
2023-02-11T08:44:22.923Z,96.27
2023-02-11T08:45:22.966Z,96.27
2023-02-11T08:46:23.103Z,96.27
2023-02-11T08:47:22.888Z,96.27
2023-02-11T08:48:22.945Z,96.27
2023-02-11T08:49:22.881Z,96.27
2023-02-11T08:50:22.893Z,96.27
2023-02-11T08:51:22.886Z,96.27
2023-02-11T08:52:23.136Z,96.27
2023-02-11T08:53:22.832Z,96.27
2023-02-11T08:54:23.486Z,96.27
2023-02-11T08:55:22.836Z,96.27
2023-02-11T08:56:22.817Z,96.17
2023-02-11T08:57:22.776Z,96.17
2023-02-11T08:58:22.776Z,96.27
2023-02-11T08:59:22.768Z,96.17
2023-02-11T09:00:22.767Z,96.17
2023-02-11T09:01:23.208Z,96.17
2023-02-11T09:02:22.890Z,96.17
2023-02-11T09:03:22.751Z,96.17
2023-02-11T09:04:22.718Z,96.17
2023-02-11T09:05:22.704Z,96.17
2023-02-11T09:06:22.704Z,96.17
2023-02-11T09:07:22.669Z,96.02
2023-02-11T09:08:22.665Z,96.02
2023-02-11T09:09:22.694Z,96.02
2023-02-11T09:10:22.781Z,96.02
2023-02-11T09:11:22.680Z,96.02
2023-02-11T09:12:22.747Z,95.92
2023-02-11T09:13:22.605Z,95.92
2023-02-11T09:14:22.627Z,95.92
2023-02-11T09:15:22.594Z,95.92
2023-02-11T09:16:22.656Z,95.92
2023-02-11T09:17:22.590Z,95.92
2023-02-11T09:18:22.616Z,95.92
2023-02-11T09:19:22.596Z,95.92
2023-02-11T09:20:22.634Z,95.92
2023-02-11T09:21:22.635Z,95.81
2023-02-11T09:22:22.544Z,95.81
2023-02-11T09:23:22.534Z,95.81
2023-02-11T09:24:22.513Z,95.81
2023-02-11T09:25:22.514Z,95.81
2023-02-11T09:26:22.582Z,95.81
2023-02-11T09:27:22.491Z,95.71
2023-02-11T09:28:22.580Z,95.71
2023-02-11T09:29:22.454Z,95.71
2023-02-11T09:30:22.494Z,95.71
2023-02-11T09:31:22.508Z,95.71
2023-02-11T09:32:22.501Z,95.71
2023-02-11T09:33:22.403Z,95.61
2023-02-11T09:34:22.447Z,95.61
2023-02-11T09:35:22.456Z,95.61
2023-02-11T09:36:22.377Z,95.61
2023-02-11T09:37:22.354Z,95.61
2023-02-11T09:38:22.444Z,95.61
2023-02-11T09:39:22.335Z,95.46
2023-02-11T09:40:22.386Z,95.56
2023-02-11T09:41:22.350Z,95.56
2023-02-11T09:42:22.357Z,95.46
2023-02-11T09:43:22.302Z,95.46
2023-02-11T09:44:22.328Z,95.46
2023-02-11T09:45:22.275Z,95.36
2023-02-11T09:46:22.345Z,95.36
2023-02-11T09:47:22.299Z,95.36
2023-02-11T09:48:22.303Z,95.36
2023-02-11T09:49:22.223Z,95.36
2023-02-11T09:50:22.268Z,95.36
2023-02-11T09:51:22.253Z,95.25
2023-02-11T09:52:22.202Z,95.25
2023-02-11T09:53:22.192Z,95.25
2023-02-11T09:54:22.212Z,95.25
2023-02-11T09:55:22.179Z,95.25
2023-02-11T09:56:22.235Z,95.36
2023-02-11T09:57:28.710Z,95.46
2023-02-11T09:58:23.141Z,95.46
2023-02-11T09:59:22.129Z,95.46
2023-02-11T10:00:22.330Z,95.25
2023-02-11T10:01:22.173Z,95.21
2023-02-11T10:02:22.097Z,95.10
2023-02-11T10:03:22.133Z,95.00
2023-02-11T10:04:22.123Z,95.00
2023-02-11T10:05:22.088Z,94.80
2023-02-11T10:06:22.170Z,94.80
2023-02-11T10:07:22.049Z,94.80
2023-02-11T10:08:22.056Z,94.80
2023-02-11T10:09:22.028Z,94.80
2023-02-11T10:10:22.015Z,94.84
2023-02-11T10:11:31.263Z,94.80
2023-02-11T10:12:23.067Z,94.80
2023-02-11T10:13:22.023Z,94.80
2023-02-11T10:14:21.978Z,94.80
2023-02-11T10:15:22.003Z,94.90
2023-02-11T10:16:22.020Z,94.90
2023-02-11T10:17:21.975Z,94.90
2023-02-11T10:18:21.938Z,94.90
2023-02-11T10:19:21.919Z,94.90
2023-02-11T10:20:21.948Z,94.80
2023-02-11T10:21:21.927Z,94.80
2023-02-11T10:22:21.895Z,94.80
2023-02-11T10:23:21.940Z,94.80
2023-02-11T10:24:21.866Z,94.80
2023-02-11T10:25:21.859Z,94.90
2023-02-11T10:26:21.856Z,95.17
2023-02-11T10:27:21.832Z,95.06
2023-02-11T10:28:21.876Z,95.17
2023-02-11T10:29:21.835Z,94.81
2023-02-11T10:30:21.815Z,94.60
2023-02-11T10:31:21.977Z,94.81
2023-02-11T10:32:21.793Z,94.20
2023-02-11T10:33:21.766Z,93.58
2023-02-11T10:34:21.762Z,93.37
2023-02-11T10:35:21.768Z,93.41
2023-02-11T10:36:21.752Z,93.52
2023-02-11T10:37:21.752Z,93.62
2023-02-11T10:38:21.876Z,93.73
2023-02-11T10:39:21.721Z,93.83
2023-02-11T10:40:21.702Z,93.93
2023-02-11T10:41:21.683Z,94.03
2023-02-11T10:42:21.673Z,94.03
2023-02-11T10:43:21.682Z,94.03
2023-02-11T10:44:21.682Z,94.13
2023-02-11T10:45:21.644Z,94.13
2023-02-11T10:46:21.659Z,94.24
2023-02-11T10:47:21.644Z,94.24
2023-02-11T10:48:21.661Z,94.34
2023-02-11T10:49:21.592Z,94.34
2023-02-11T10:50:21.621Z,94.34
2023-02-11T10:51:21.578Z,94.45
2023-02-11T10:52:21.569Z,94.45
2023-02-11T10:53:21.554Z,94.45
2023-02-11T10:54:21.553Z,94.45
2023-02-11T10:55:21.563Z,94.45
2023-02-11T10:56:21.523Z,94.45
2023-02-11T10:57:21.553Z,94.34
2023-02-11T10:58:21.539Z,94.34
2023-02-11T10:59:21.747Z,94.34
2023-02-11T11:00:21.489Z,94.24
2023-02-11T11:01:24.606Z,94.34
2023-02-11T11:02:21.561Z,94.34
2023-02-11T11:03:21.488Z,94.34
2023-02-11T11:04:21.491Z,94.24
2023-02-11T11:05:21.433Z,94.34
2023-02-11T11:06:21.412Z,94.34
2023-02-11T11:07:21.494Z,94.34
2023-02-11T11:08:21.427Z,94.34
2023-02-11T11:09:21.369Z,94.34
2023-02-11T11:10:21.369Z,94.34
2023-02-11T11:11:21.355Z,94.34
2023-02-11T11:12:21.458Z,94.34
2023-02-11T11:13:21.333Z,94.45
2023-02-11T11:14:21.339Z,94.45
2023-02-11T11:15:21.323Z,94.40
2023-02-11T11:16:21.393Z,94.40
2023-02-11T11:17:21.296Z,94.40
2023-02-11T11:18:23.281Z,94.51
2023-02-11T11:19:21.326Z,94.40
2023-02-11T11:20:21.287Z,94.51
2023-02-11T11:21:21.291Z,94.51
2023-02-11T11:22:21.261Z,94.51
2023-02-11T11:23:21.229Z,94.51
2023-02-11T11:24:21.267Z,94.51
2023-02-11T11:25:21.221Z,94.60
2023-02-11T11:26:21.224Z,94.71
2023-02-11T11:27:28.208Z,94.71
2023-02-11T11:28:21.218Z,94.71
2023-02-11T11:29:21.168Z,94.71
2023-02-11T11:30:21.193Z,94.71
2023-02-11T11:31:21.302Z,94.71
2023-02-11T11:32:21.149Z,94.71
2023-02-11T11:33:21.139Z,94.71
2023-02-11T11:34:21.120Z,94.71
2023-02-11T11:35:21.186Z,94.71
2023-02-11T11:36:21.121Z,94.71
2023-02-11T11:37:21.098Z,94.71
2023-02-11T11:38:21.119Z,94.71
2023-02-11T11:39:25.632Z,94.71
2023-02-11T11:40:21.050Z,94.71
2023-02-11T11:41:21.103Z,94.71
2023-02-11T11:42:21.030Z,94.81
2023-02-11T11:43:23.227Z,94.81
2023-02-11T11:44:21.026Z,94.81
2023-02-11T11:45:21.008Z,94.81
2023-02-11T11:46:21.037Z,94.81
2023-02-11T11:47:20.973Z,94.92
2023-02-11T11:48:20.984Z,94.92
2023-02-11T11:49:20.946Z,94.81
2023-02-11T11:50:21.385Z,94.92
2023-02-11T11:51:20.941Z,94.87
2023-02-11T11:52:20.996Z,94.87
2023-02-11T11:53:20.913Z,94.87
2023-02-11T11:54:20.903Z,94.77
2023-02-11T11:55:20.886Z,94.77
2023-02-11T11:56:20.888Z,94.77
2023-02-11T11:57:20.863Z,94.77
2023-02-11T11:58:20.914Z,94.77
2023-02-11T11:59:20.840Z,94.77
2023-02-11T12:00:20.852Z,94.67
2023-02-11T12:01:20.856Z,94.67
2023-02-11T12:02:20.869Z,94.67
2023-02-11T12:03:20.885Z,94.67
2023-02-11T12:04:21.010Z,94.67
2023-02-11T12:05:20.787Z,94.67
2023-02-11T12:06:20.778Z,94.67
2023-02-11T12:07:20.857Z,94.67
2023-02-11T12:08:20.747Z,94.56
2023-02-11T12:09:20.750Z,94.56
2023-02-11T12:10:20.723Z,94.56
2023-02-11T12:11:20.801Z,94.56
2023-02-11T12:12:20.701Z,94.67
2023-02-11T12:13:20.689Z,94.67
2023-02-11T12:14:20.678Z,94.67
2023-02-11T12:15:20.673Z,94.67
2023-02-11T12:16:20.691Z,94.67
2023-02-11T12:17:20.735Z,94.67
2023-02-11T12:18:20.642Z,94.67
2023-02-11T12:19:20.663Z,94.67
2023-02-11T12:20:20.659Z,94.67
2023-02-11T12:21:20.631Z,94.77
2023-02-11T12:22:20.592Z,94.77
2023-02-11T12:23:20.578Z,94.77
2023-02-11T12:24:20.575Z,94.77
2023-02-11T12:25:20.581Z,94.77
2023-02-11T12:26:20.638Z,94.87
2023-02-11T12:27:20.540Z,94.87
2023-02-11T12:28:20.564Z,94.87
2023-02-11T12:29:20.525Z,94.87
2023-02-11T12:30:20.524Z,94.87
2023-02-11T12:31:20.632Z,94.77
2023-02-11T12:32:20.532Z,94.77
2023-02-11T12:33:20.512Z,94.67
2023-02-11T12:34:20.470Z,94.77
2023-02-11T12:35:20.775Z,94.77
2023-02-11T12:36:20.451Z,94.73
2023-02-11T12:37:20.458Z,94.62
2023-02-11T12:38:20.424Z,94.62
2023-02-11T12:39:21.384Z,94.52
2023-02-11T12:40:20.466Z,94.52
2023-02-11T12:41:20.430Z,94.52
2023-02-11T12:42:20.385Z,94.52
2023-02-11T12:43:20.386Z,94.42
2023-02-11T12:44:20.438Z,94.52
2023-02-11T12:45:20.361Z,94.42
2023-02-11T12:46:20.416Z,94.52
2023-02-11T12:47:20.341Z,94.42
2023-02-11T12:48:20.349Z,94.42
2023-02-11T12:49:20.298Z,94.42
2023-02-11T12:50:20.298Z,94.31
2023-02-11T12:51:20.288Z,94.31
2023-02-11T12:52:20.280Z,94.31